Time;durP1;ratioP1;P1;durP2;ratioP2;P2;SDS_P1;SDS_P2;PMS_P1;PMS_P2;Temp;Humidity;BMP_temperature;BMP_pressure;BME280_temperature;BME280_humidity;BME280_pressure;Samples;Min_cycle;Max_cycle;Signal;HPM_P1;HPM_P2
2021/12/30 00:01:28;;;;;;;37.42;7.65;;;8.80;93.80;;;;;;5119903;27;20063;-67
2021/12/30 00:03:55;;;;;;;43.65;6.97;;;8.90;93.80;;;;;;5130834;27;20051;-67
2021/12/30 00:06:23;;;;;;;50.13;8.20;;;8.80;93.70;;;;;;5128495;27;20089;-66
2021/12/30 00:08:51;;;;;;;45.50;8.55;;;8.70;93.80;;;;;;5124875;27;20075;-67
2021/12/30 00:11:17;;;;;;;49.88;7.80;;;8.70;93.80;;;;;;5099936;28;20555;-67
2021/12/30 00:13:45;;;;;;;34.22;6.45;;;8.70;93.80;;;;;;5130455;27;20126;-66
2021/12/30 00:16:15;;;;;;;40.38;8.55;;;8.70;93.70;;;;;;5112125;27;20047;-66
2021/12/30 00:18:42;;;;;;;46.13;10.20;;;8.60;93.70;;;;;;5109968;28;20047;-67
2021/12/30 00:21:08;;;;;;;47.67;7.45;;;8.60;93.70;;;;;;5112943;27;20046;-67
2021/12/30 00:23:34;;;;;;;45.30;10.02;;;8.60;93.40;;;;;;5091316;28;20043;-67
2021/12/30 00:26:00;;;;;;;51.78;7.93;;;8.60;93.60;;;;;;5123673;27;20043;-66
2021/12/30 00:28:28;;;;;;;47.72;9.75;;;8.60;93.50;;;;;;5130426;27;20491;-66
2021/12/30 00:30:54;;;;;;;49.08;8.75;;;8.60;93.50;;;;;;5129991;27;20140;-66
2021/12/30 00:33:20;;;;;;;56.63;7.60;;;8.60;93.40;;;;;;5130464;27;20039;-67
2021/12/30 00:35:47;;;;;;;48.20;8.02;;;8.60;93.40;;;;;;5123010;27;20043;-66
2021/12/30 00:38:13;;;;;;;49.85;9.13;;;8.60;93.20;;;;;;5091951;28;20040;-67
2021/12/30 00:40:40;;;;;;;40.40;8.15;;;8.60;93.30;;;;;;5116563;27;20047;-67
2021/12/30 00:43:06;;;;;;;43.67;9.45;;;8.60;93.00;;;;;;5129223;27;20038;-66
2021/12/30 00:45:33;;;;;;;46.05;8.75;;;8.60;93.00;;;;;;5129495;27;20067;-66
2021/12/30 00:47:59;;;;;;;61.17;10.75;;;8.50;93.00;;;;;;5129028;27;20050;-67
2021/12/30 00:50:26;;;;;;;45.45;8.45;;;8.50;92.80;;;;;;5129740;27;20047;-67
2021/12/30 00:52:52;;;;;;;42.80;8.77;;;8.40;92.70;;;;;;5128963;27;20054;-66
2021/12/30 00:55:18;;;;;;;52.97;13.55;;;8.40;92.80;;;;;;5114188;28;20043;-66
2021/12/30 00:57:44;;;;;;;47.75;8.68;;;8.30;92.70;;;;;;5103169;28;20496;-66
2021/12/30 01:00:14;;;;;;;50.15;8.65;;;8.20;92.70;;;;;;5109234;28;20040;-67
2021/12/30 01:02:40;;;;;;;38.20;6.95;;;8.20;92.70;;;;;;5129418;28;20225;-67
2021/12/30 01:05:06;;;;;;;39.50;7.95;;;8.20;92.50;;;;;;5123221;28;20126;-67
2021/12/30 01:07:32;;;;;;;45.90;10.63;;;8.20;92.70;;;;;;5104617;28;20502;-67
2021/12/30 01:09:59;;;;;;;45.83;8.35;;;8.20;92.70;;;;;;5109518;28;20075;-66
2021/12/30 01:12:25;;;;;;;48.60;8.00;;;8.20;92.70;;;;;;5101251;28;20419;-67
2021/12/30 01:14:51;;;;;;;43.22;8.00;;;8.20;92.70;;;;;;5127297;28;20047;-66
2021/12/30 01:17:26;;;;;;;40.40;7.93;;;8.10;92.70;;;;;;5118230;28;20040;-67
2021/12/30 01:19:52;;;;;;;41.05;7.82;;;8.10;92.70;;;;;;5101553;28;20518;-67
2021/12/30 01:22:23;;;;;;;44.03;8.38;;;8.10;92.70;;;;;;5111159;28;20043;-66
2021/12/30 01:24:49;;;;;;;41.73;7.27;;;8.10;92.90;;;;;;5120399;28;20047;-67
2021/12/30 01:27:15;;;;;;;30.40;6.72;;;8.10;92.80;;;;;;5129265;28;20487;-67
2021/12/30 01:29:41;;;;;;;32.10;6.05;;;8.10;92.80;;;;;;5128876;28;20384;-67
2021/12/30 01:32:07;;;;;;;35.80;7.60;;;8.10;92.80;;;;;;5123364;28;20042;-66
2021/12/30 01:34:33;;;;;;;40.00;7.78;;;8.10;92.80;;;;;;5112603;28;20046;-66
2021/12/30 01:37:01;;;;;;;37.58;6.03;;;8.10;92.70;;;;;;5086750;28;20122;-66
2021/12/30 01:39:28;;;;;;;38.60;7.07;;;8.10;92.70;;;;;;5129352;28;20071;-66
2021/12/30 01:41:55;;;;;;;43.28;6.97;;;8.00;92.60;;;;;;5112509;28;20040;-66
2021/12/30 01:44:21;;;;;;;44.67;6.88;;;8.00;92.80;;;;;;5123633;28;20059;-66
2021/12/30 01:46:48;;;;;;;30.10;6.57;;;8.00;92.80;;;;;;5129848;28;20035;-66
2021/12/30 01:49:14;;;;;;;38.95;7.30;;;8.00;92.70;;;;;;5111360;28;20039;-66
2021/12/30 01:51:42;;;;;;;35.83;6.55;;;8.00;92.80;;;;;;5128037;28;20048;-66
2021/12/30 01:54:08;;;;;;;45.25;6.82;;;8.00;92.80;;;;;;5113980;28;20043;-66
2021/12/30 01:56:34;;;;;;;37.42;6.53;;;8.00;92.80;;;;;;5091539;28;20435;-66
2021/12/30 01:59:00;;;;;;;39.42;6.22;;;8.00;92.90;;;;;;5117771;28;20089;-66
2021/12/30 02:01:26;;;;;;;41.67;7.38;;;8.00;92.90;;;;;;5120660;27;20050;-66
2021/12/30 02:03:52;;;;;;;45.38;6.95;;;8.00;92.90;;;;;;5113984;27;20047;-66
2021/12/30 02:06:18;;;;;;;43.95;7.95;;;8.00;92.90;;;;;;5116150;27;20119;-66
2021/12/30 02:08:43;;;;;;;29.80;6.35;;;8.00;92.90;;;;;;5112261;28;20062;-66
2021/12/30 02:11:09;;;;;;;45.30;6.65;;;8.00;93.00;;;;;;5101567;27;20046;-66
2021/12/30 02:13:35;;;;;;;47.90;6.85;;;8.00;93.10;;;;;;5121068;27;20042;-66
2021/12/30 02:16:02;;;;;;;39.85;7.18;;;8.10;93.20;;;;;;5121101;27;20095;-66
2021/12/30 02:18:29;;;;;;;39.15;6.68;;;8.10;93.40;;;;;;5132603;27;20169;-66
2021/12/30 02:20:58;;;;;;;47.33;8.02;;;8.10;93.30;;;;;;5132839;27;20071;-66
2021/12/30 02:23:29;;;;;;;44.90;7.25;;;8.10;93.30;;;;;;5118581;27;20357;-66
2021/12/30 02:26:02;;;;;;;36.78;6.50;;;8.10;93.40;;;;;;5076953;28;20044;-66
2021/12/30 02:28:30;;;;;;;39.35;8.05;;;8.10;93.50;;;;;;5112265;28;20035;-66
2021/12/30 02:30:57;;;;;;;45.22;7.65;;;8.10;93.50;;;;;;5127766;27;20047;-66
2021/12/30 02:33:24;;;;;;;53.95;9.85;;;8.10;93.40;;;;;;5118674;27;20075;-66
2021/12/30 02:35:50;;;;;;;49.55;8.93;;;8.10;93.50;;;;;;5112256;28;20040;-66
2021/12/30 02:38:17;;;;;;;54.05;7.90;;;8.10;93.60;;;;;;5111735;28;20049;-66
2021/12/30 02:40:49;;;;;;;46.05;10.38;;;8.10;93.70;;;;;;5102033;27;20506;-66
2021/12/30 02:43:20;;;;;;;49.85;9.55;;;8.10;93.70;;;;;;5126030;27;20039;-66
2021/12/30 02:45:47;;;;;;;38.15;7.85;;;8.10;93.60;;;;;;5132263;27;20525;-66
2021/12/30 02:48:15;;;;;;;44.33;8.55;;;8.10;93.60;;;;;;5126199;27;20047;-66
2021/12/30 02:50:42;;;;;;;48.40;9.52;;;8.10;93.60;;;;;;5132611;27;20172;-66
2021/12/30 02:53:08;;;;;;;49.40;8.38;;;8.10;93.60;;;;;;5122282;27;20092;-66
2021/12/30 02:55:33;;;;;;;37.70;7.47;;;8.10;93.60;;;;;;5112017;28;20518;-66
2021/12/30 02:57:59;;;;;;;41.30;8.20;;;8.10;93.50;;;;;;5099989;28;20036;-66
2021/12/30 03:00:27;;;;;;;44.22;8.48;;;8.10;93.50;;;;;;5108301;27;20044;-66
2021/12/30 03:02:53;;;;;;;55.25;9.95;;;8.10;93.50;;;;;;5113447;27;20051;-66
2021/12/30 03:05:20;;;;;;;44.13;8.63;;;8.10;93.50;;;;;;5112218;27;20049;-66
2021/12/30 03:07:46;;;;;;;41.03;8.05;;;8.00;93.50;;;;;;5114083;27;20502;-66
2021/12/30 03:10:18;;;;;;;36.90;10.43;;;8.00;93.50;;;;;;5131293;27;20126;-66
2021/12/30 03:12:44;;;;;;;40.20;9.70;;;8.00;93.60;;;;;;5130496;27;20035;-66
2021/12/30 03:15:14;;;;;;;46.20;9.75;;;8.00;93.60;;;;;;5131755;27;20051;-66
2021/12/30 03:17:40;;;;;;;43.33;9.90;;;8.10;93.70;;;;;;5099079;28;20047;-66
2021/12/30 03:20:09;;;;;;;41.05;10.73;;;8.10;93.70;;;;;;5110821;27;20054;-66
2021/12/30 03:22:39;;;;;;;50.83;9.40;;;8.10;93.90;;;;;;5111371;27;20613;-66
2021/12/30 03:25:09;;;;;;;46.13;9.68;;;8.20;94.00;;;;;;5110889;27;20056;-66
2021/12/30 03:27:36;;;;;;;44.63;10.30;;;8.30;94.00;;;;;;5111180;28;20079;-66
2021/12/30 03:30:08;;;;;;;43.67;7.60;;;8.40;94.30;;;;;;5110820;27;20035;-66
2021/12/30 03:32:34;;;;;;;52.40;9.52;;;8.40;94.30;;;;;;5124527;27;20046;-66
2021/12/30 03:35:00;;;;;;;49.75;8.88;;;8.40;94.30;;;;;;5122868;27;20031;-66
2021/12/30 03:37:26;;;;;;;50.42;10.10;;;8.50;94.40;;;;;;5123097;27;20103;-66
2021/12/30 03:39:51;;;;;;;49.78;7.82;;;8.50;94.30;;;;;;5131692;27;20050;-67
2021/12/30 03:42:17;;;;;;;56.58;8.98;;;8.50;94.30;;;;;;5130923;27;20035;-66
2021/12/30 03:44:44;;;;;;;38.70;9.23;;;8.50;94.30;;;;;;5131146;27;20473;-66
2021/12/30 03:47:16;;;;;;;43.00;8.00;;;8.60;94.30;;;;;;5130858;27;20054;-66
2021/12/30 03:49:44;;;;;;;50.65;11.52;;;8.50;94.20;;;;;;5131422;27;20043;-66
2021/12/30 03:52:15;;;;;;;39.28;7.82;;;8.50;94.20;;;;;;5116071;27;20051;-66
2021/12/30 03:54:41;;;;;;;49.03;8.80;;;8.50;94.20;;;;;;5092182;28;20050;-66
2021/12/30 03:57:07;;;;;;;51.85;11.32;;;8.60;94.20;;;;;;5113385;27;20058;-66
2021/12/30 03:59:32;;;;;;;42.70;8.43;;;8.60;94.20;;;;;;5113744;27;20404;-66
2021/12/30 04:01:58;;;;;;;48.10;9.32;;;8.60;94.20;;;;;;5124474;27;20801;-66
2021/12/30 04:04:23;;;;;;;54.53;9.85;;;8.60;94.30;;;;;;5110768;27;20043;-66
2021/12/30 04:06:49;;;;;;;57.67;9.23;;;8.60;94.20;;;;;;5094724;27;20073;-66
2021/12/30 04:09:15;;;;;;;53.70;8.20;;;8.60;94.40;;;;;;5110520;28;20153;-67
2021/12/30 04:11:41;;;;;;;50.63;9.40;;;8.60;94.60;;;;;;5110196;28;20044;-66
2021/12/30 04:14:06;;;;;;;47.05;9.05;;;8.70;94.50;;;;;;5120738;27;20106;-66
2021/12/30 04:16:34;;;;;;;58.22;10.15;;;8.70;94.50;;;;;;5130983;27;20042;-66
2021/12/30 04:19:00;;;;;;;60.15;11.10;;;8.80;94.60;;;;;;5130472;27;20031;-66
2021/12/30 04:21:26;;;;;;;57.00;10.23;;;8.80;94.60;;;;;;5130894;27;20454;-66
2021/12/30 04:23:52;;;;;;;58.00;10.23;;;8.90;94.60;;;;;;5125507;27;20039;-66
2021/12/30 04:26:18;;;;;;;61.53;12.02;;;8.90;94.50;;;;;;5130194;27;20088;-66
2021/12/30 04:28:44;;;;;;;62.42;10.07;;;8.90;94.50;;;;;;5113880;27;20110;-66
2021/12/30 04:31:10;;;;;;;72.22;11.77;;;9.00;94.40;;;;;;5119390;27;20050;-66
2021/12/30 04:33:36;;;;;;;58.55;11.27;;;9.00;94.50;;;;;;5109973;27;20141;-66
2021/12/30 04:36:02;;;;;;;56.33;10.45;;;9.00;94.50;;;;;;5113852;27;20040;-66
2021/12/30 04:38:30;;;;;;;61.55;11.45;;;9.10;94.50;;;;;;5091907;28;20502;-66
2021/12/30 04:40:56;;;;;;;58.88;10.73;;;9.10;94.50;;;;;;5110265;28;20118;-66
2021/12/30 04:43:22;;;;;;;64.03;12.23;;;9.10;94.40;;;;;;5113196;28;20131;-66
2021/12/30 04:45:48;;;;;;;54.47;14.80;;;9.10;94.50;;;;;;5109807;28;20068;-65
2021/12/30 04:48:16;;;;;;;69.80;12.13;;;9.10;94.50;;;;;;5122178;27;20047;-66
2021/12/30 04:50:41;;;;;;;68.10;13.73;;;9.10;94.50;;;;;;5116225;28;20036;-66
2021/12/30 04:53:08;;;;;;;72.57;12.23;;;9.10;94.50;;;;;;5108947;28;20058;-66
2021/12/30 04:55:33;;;;;;;57.28;12.68;;;9.20;94.50;;;;;;5104391;28;20147;-67
2021/12/30 04:57:59;;;;;;;70.20;13.63;;;9.20;94.70;;;;;;5123335;28;20039;-66
2021/12/30 05:00:25;;;;;;;63.92;12.65;;;9.20;94.60;;;;;;5120461;28;20147;-65
2021/12/30 05:05:19;;;;;;;70.50;13.57;;;9.30;94.70;;;;;;5124366;28;20419;-66
2021/12/30 05:07:44;;;;;;;59.95;13.93;;;9.30;94.60;;;;;;5126594;28;20035;-67
2021/12/30 05:10:10;;;;;;;50.30;13.70;;;9.40;94.70;;;;;;5126838;28;20037;-67
2021/12/30 05:12:35;;;;;;;54.45;13.50;;;9.40;94.70;;;;;;5122611;28;20039;-67
2021/12/30 05:15:01;;;;;;;56.13;13.38;;;9.40;94.70;;;;;;5109352;28;20044;-67
2021/12/30 05:17:29;;;;;;;60.33;13.90;;;9.40;94.70;;;;;;5109619;28;20126;-67
2021/12/30 05:19:55;;;;;;;69.85;14.00;;;9.50;94.70;;;;;;5110315;28;20047;-67
2021/12/30 05:22:20;;;;;;;48.90;12.43;;;9.50;94.80;;;;;;5126493;28;20457;-66
2021/12/30 05:24:46;;;;;;;68.03;15.45;;;9.50;94.80;;;;;;5111456;28;20043;-68
2021/12/30 05:27:12;;;;;;;56.50;13.52;;;9.50;94.80;;;;;;5127213;28;20035;-66
2021/12/30 05:29:37;;;;;;;50.55;13.35;;;9.50;94.80;;;;;;5129775;28;20104;-66
2021/12/30 05:32:03;;;;;;;70.30;14.93;;;9.60;94.80;;;;;;5097054;28;20408;-66
2021/12/30 05:34:29;;;;;;;49.40;13.05;;;9.50;94.80;;;;;;5127900;27;20092;-67
2021/12/30 05:36:54;;;;;;;47.30;13.43;;;9.60;94.80;;;;;;5132665;27;20495;-67
2021/12/30 05:39:20;;;;;;;38.78;13.77;;;9.60;94.80;;;;;;5123949;27;20095;-66
2021/12/30 05:41:46;;;;;;;50.47;13.30;;;9.60;94.80;;;;;;5126228;27;20387;-67
2021/12/30 05:44:11;;;;;;;45.00;14.38;;;9.60;94.80;;;;;;5123717;27;20044;-66
2021/12/30 05:46:37;;;;;;;59.60;15.15;;;9.60;95.00;;;;;;5119025;27;20718;-67
2021/12/30 05:49:03;;;;;;;48.53;14.00;;;9.60;94.90;;;;;;5122233;27;20514;-66
2021/12/30 05:51:29;;;;;;;49.58;15.00;;;9.70;94.90;;;;;;5132448;27;20047;-67
2021/12/30 05:53:55;;;;;;;44.45;14.30;;;9.60;94.90;;;;;;5120214;27;20375;-66
2021/12/30 05:56:20;;;;;;;49.58;14.27;;;9.60;94.90;;;;;;5113038;27;20061;-67
2021/12/30 05:58:46;;;;;;;51.78;14.57;;;9.70;95.00;;;;;;5114061;27;20035;-67
2021/12/30 06:01:12;;;;;;;56.97;16.08;;;9.60;95.00;;;;;;5131535;27;20047;-67
2021/12/30 06:03:38;;;;;;;44.92;15.10;;;9.70;95.00;;;;;;5131545;27;20055;-67
2021/12/30 06:06:03;;;;;;;49.75;16.25;;;9.70;95.00;;;;;;5120783;27;20043;-67
2021/12/30 06:08:29;;;;;;;51.28;16.02;;;9.70;95.00;;;;;;5127870;27;20475;-67
2021/12/30 06:10:55;;;;;;;53.97;15.55;;;9.70;95.00;;;;;;5133390;27;20517;-67
2021/12/30 06:13:20;;;;;;;41.55;15.85;;;9.70;95.00;;;;;;5100769;27;20059;-67
2021/12/30 06:15:46;;;;;;;43.13;14.73;;;9.70;94.90;;;;;;5119707;27;20075;-67
2021/12/30 06:18:12;;;;;;;33.63;13.95;;;9.70;95.00;;;;;;5112846;28;20126;-67
2021/12/30 06:20:37;;;;;;;38.90;14.50;;;9.70;94.90;;;;;;5112241;28;20044;-67
2021/12/30 06:23:03;;;;;;;38.60;13.15;;;9.80;94.90;;;;;;5112418;28;20063;-67
2021/12/30 06:25:29;;;;;;;27.25;11.60;;;9.80;94.90;;;;;;5112336;28;20542;-67
2021/12/30 06:27:54;;;;;;;21.63;11.80;;;9.80;94.90;;;;;;5113956;27;20046;-67
2021/12/30 06:30:20;;;;;;;28.50;11.95;;;9.80;94.90;;;;;;5123120;27;20386;-67
2021/12/30 06:32:46;;;;;;;27.00;12.70;;;9.80;94.90;;;;;;5112489;27;20075;-66
2021/12/30 06:35:11;;;;;;;25.15;11.50;;;9.80;94.90;;;;;;5121021;27;20092;-67
2021/12/30 06:37:38;;;;;;;25.00;10.93;;;9.80;94.90;;;;;;5112292;27;20051;-67
2021/12/30 06:40:06;;;;;;;25.02;11.07;;;9.80;94.90;;;;;;5112413;27;20114;-67
2021/12/30 06:42:32;;;;;;;20.50;10.45;;;9.90;94.90;;;;;;5124161;27;20055;-67
2021/12/30 06:44:57;;;;;;;25.70;10.60;;;9.90;94.90;;;;;;5122578;27;20035;-67
2021/12/30 06:47:24;;;;;;;18.83;9.93;;;9.80;94.90;;;;;;5107758;27;20381;-67
2021/12/30 06:49:50;;;;;;;26.25;9.93;;;9.90;94.90;;;;;;5123453;27;20083;-67
2021/12/30 06:52:16;;;;;;;16.05;9.02;;;9.90;94.90;;;;;;5112692;27;20065;-66
2021/12/30 06:54:42;;;;;;;22.02;9.68;;;9.90;94.90;;;;;;5126934;27;20588;-66
2021/12/30 06:57:11;;;;;;;18.73;9.23;;;9.90;94.90;;;;;;5120233;27;20031;-67
2021/12/30 06:59:36;;;;;;;20.10;10.77;;;9.90;95.00;;;;;;5119885;27;20039;-66
2021/12/30 07:02:04;;;;;;;16.58;8.30;;;9.90;94.90;;;;;;5127167;27;20130;-67
2021/12/30 07:04:30;;;;;;;16.77;8.15;;;9.90;95.00;;;;;;5131377;27;20522;-67
2021/12/30 07:06:55;;;;;;;17.10;7.78;;;9.90;95.00;;;;;;5098414;28;20039;-66
2021/12/30 07:09:21;;;;;;;15.02;7.93;;;9.90;95.00;;;;;;5111994;27;20079;-66
2021/12/30 07:11:49;;;;;;;15.57;7.60;;;9.90;95.00;;;;;;5122497;27;20042;-67
2021/12/30 07:14:17;;;;;;;13.85;7.88;;;9.90;95.00;;;;;;5131115;27;20057;-66
2021/12/30 07:16:43;;;;;;;14.95;6.97;;;9.90;95.00;;;;;;5131263;27;20042;-66
2021/12/30 07:19:09;;;;;;;17.20;7.55;;;10.00;95.00;;;;;;5131292;27;20043;-66
2021/12/30 07:21:34;;;;;;;12.77;6.82;;;10.00;95.00;;;;;;5123068;27;20411;-67
2021/12/30 07:24:00;;;;;;;16.92;7.75;;;10.00;95.10;;;;;;5111694;27;20341;-66
2021/12/30 07:26:26;;;;;;;19.63;7.20;;;10.00;95.00;;;;;;5124565;27;20419;-67
2021/12/30 07:28:51;;;;;;;13.10;6.65;;;10.00;95.00;;;;;;5128888;27;20126;-67
2021/12/30 07:31:17;;;;;;;22.27;6.80;;;10.10;95.00;;;;;;5077803;28;20100;-67
2021/12/30 07:33:42;;;;;;;16.80;7.65;;;10.10;95.00;;;;;;5110314;28;20146;-66
2021/12/30 07:36:08;;;;;;;14.40;7.20;;;10.10;95.20;;;;;;5110534;28;20043;-66
2021/12/30 07:38:33;;;;;;;9.75;6.85;;;10.10;95.10;;;;;;5110102;28;20310;-66
2021/12/30 07:40:59;;;;;;;16.15;6.50;;;10.10;95.10;;;;;;5110511;28;20040;-67
2021/12/30 07:43:25;;;;;;;12.52;6.38;;;10.10;95.10;;;;;;5094852;28;20053;-66
2021/12/30 07:45:51;;;;;;;15.55;6.53;;;10.20;95.10;;;;;;5124470;27;20044;-66
2021/12/30 07:48:18;;;;;;;9.77;6.05;;;10.10;95.00;;;;;;5110333;28;20577;-66
2021/12/30 07:50:44;;;;;;;15.90;6.28;;;10.10;95.00;;;;;;5110749;28;20522;-66
2021/12/30 07:53:10;;;;;;;14.23;6.65;;;10.10;95.00;;;;;;5110781;28;20043;-68
2021/12/30 07:55:35;;;;;;;17.08;6.70;;;10.10;95.00;;;;;;5110752;28;20051;-66
2021/12/30 07:58:01;;;;;;;14.70;5.93;;;10.20;95.20;;;;;;5125606;27;20035;-66
2021/12/30 08:00:27;;;;;;;21.55;6.53;;;10.30;95.20;;;;;;5130224;27;20638;-66
2021/12/30 08:02:53;;;;;;;22.30;6.07;;;10.50;95.00;;;;;;5120746;27;20139;-67
2021/12/30 08:05:20;;;;;;;21.85;6.85;;;10.50;94.90;;;;;;5126060;27;20071;-67
2021/12/30 08:07:47;;;;;;;19.13;5.97;;;10.50;94.90;;;;;;5119716;27;20498;-66
2021/12/30 08:10:15;;;;;;;17.80;5.72;;;10.50;95.00;;;;;;5129195;27;20045;-66
2021/12/30 08:12:42;;;;;;;16.58;5.55;;;10.50;95.00;;;;;;5130105;27;20051;-66
2021/12/30 08:15:09;;;;;;;21.92;5.07;;;10.60;95.10;;;;;;5129697;27;20034;-66
2021/12/30 08:17:35;;;;;;;20.15;5.47;;;10.60;95.00;;;;;;5121940;27;20067;-67
2021/12/30 08:20:03;;;;;;;13.50;5.22;;;10.60;95.00;;;;;;5125470;27;20038;-65
2021/12/30 08:22:28;;;;;;;31.77;4.63;;;10.60;95.00;;;;;;5120460;27;20036;-66
2021/12/30 08:24:54;;;;;;;21.00;3.92;;;10.60;95.00;;;;;;5117876;27;20047;-66
2021/12/30 08:27:20;;;;;;;22.33;5.18;;;10.60;95.00;;;;;;5129340;27;20042;-67
2021/12/30 08:29:45;;;;;;;26.25;4.18;;;10.70;95.20;;;;;;5130413;27;20429;-66
2021/12/30 08:32:12;;;;;;;17.20;3.80;;;10.80;95.30;;;;;;5121350;27;20066;-66
2021/12/30 08:34:39;;;;;;;20.80;3.40;;;10.90;95.20;;;;;;5110080;28;20051;-67
2021/12/30 08:37:05;;;;;;;19.60;4.20;;;10.90;95.10;;;;;;5129632;27;20039;-66
2021/12/30 08:39:34;;;;;;;27.58;4.82;;;10.90;95.10;;;;;;5130248;27;20221;-66
2021/12/30 08:42:00;;;;;;;23.48;4.38;;;11.00;95.00;;;;;;5111465;28;20138;-68
2021/12/30 08:44:26;;;;;;;25.77;4.43;;;10.90;95.00;;;;;;5129891;27;20126;-67
2021/12/30 08:46:52;;;;;;;22.90;4.10;;;10.90;95.00;;;;;;5130404;27;20076;-68
2021/12/30 08:49:18;;;;;;;15.82;3.13;;;10.80;94.90;;;;;;5130339;27;20075;-67
2021/12/30 08:51:43;;;;;;;17.40;3.10;;;10.80;94.90;;;;;;5130273;27;20043;-66
2021/12/30 08:54:09;;;;;;;28.70;4.53;;;10.90;94.90;;;;;;5112012;28;20095;-66
2021/12/30 08:56:35;;;;;;;17.73;3.42;;;10.90;94.80;;;;;;5128476;27;20092;-66
2021/12/30 08:59:00;;;;;;;25.48;5.15;;;10.80;94.80;;;;;;5130243;28;20097;-66
2021/12/30 09:01:27;;;;;;;26.17;4.38;;;10.90;94.90;;;;;;5129288;28;20079;-66
2021/12/30 09:03:53;;;;;;;18.88;3.28;;;10.90;94.80;;;;;;5129938;27;20054;-66
2021/12/30 09:06:19;;;;;;;18.33;3.53;;;10.90;94.80;;;;;;5129206;28;20069;-67
2021/12/30 09:08:44;;;;;;;22.48;4.10;;;10.90;94.80;;;;;;5129932;28;20047;-67
2021/12/30 09:11:10;;;;;;;23.55;4.13;;;11.00;94.80;;;;;;5131792;27;20172;-66
2021/12/30 09:13:36;;;;;;;22.17;3.80;;;10.90;94.80;;;;;;5092820;27;20511;-67
2021/12/30 09:16:02;;;;;;;24.90;3.65;;;10.90;94.80;;;;;;5122357;27;20127;-66
2021/12/30 09:18:28;;;;;;;30.98;5.25;;;11.00;94.70;;;;;;5109751;27;20381;-67
2021/12/30 09:20:54;;;;;;;24.60;6.38;;;11.00;94.70;;;;;;5132807;27;20250;-67
2021/12/30 09:23:20;;;;;;;27.25;4.25;;;11.00;94.60;;;;;;5133612;27;20410;-67
2021/12/30 09:25:45;;;;;;;22.38;3.70;;;11.00;94.60;;;;;;5127031;27;20038;-67
2021/12/30 09:28:12;;;;;;;20.88;5.15;;;11.00;94.50;;;;;;5133736;27;20542;-67
2021/12/30 09:30:42;;;;;;;27.63;3.75;;;11.00;94.50;;;;;;5130386;27;20114;-66
2021/12/30 09:33:09;;;;;;;14.43;3.40;;;11.00;94.60;;;;;;5133189;27;20499;-67
2021/12/30 09:35:35;;;;;;;22.55;3.67;;;11.00;94.60;;;;;;5131372;27;20041;-67
2021/12/30 09:38:01;;;;;;;22.27;4.47;;;11.00;94.60;;;;;;5133479;27;20039;-67
2021/12/30 09:40:28;;;;;;;26.67;3.92;;;11.00;94.60;;;;;;5097661;27;20494;-67
2021/12/30 09:43:01;;;;;;;26.60;3.80;;;11.10;94.70;;;;;;5115006;27;20050;-67
2021/12/30 09:45:32;;;;;;;25.10;3.88;;;11.10;94.70;;;;;;5114325;27;20031;-66
2021/12/30 09:47:59;;;;;;;26.70;5.43;;;11.20;94.70;;;;;;5109532;27;20066;-67
2021/12/30 09:50:32;;;;;;;21.48;3.60;;;11.20;94.70;;;;;;5131828;27;20381;-67
2021/12/30 09:52:59;;;;;;;23.65;3.28;;;11.30;94.60;;;;;;5113702;27;20129;-67
2021/12/30 09:55:25;;;;;;;37.50;5.30;;;11.30;94.60;;;;;;5124997;27;20039;-67
2021/12/30 09:57:52;;;;;;;20.55;4.13;;;11.30;94.50;;;;;;5103614;27;20079;-67
2021/12/30 10:00:19;;;;;;;20.85;3.72;;;11.30;94.40;;;;;;5113311;27;20047;-67
2021/12/30 10:02:45;;;;;;;27.95;6.20;;;11.30;94.40;;;;;;5114887;27;20052;-67
2021/12/30 10:05:14;;;;;;;31.83;5.32;;;11.30;94.40;;;;;;5117637;27;20510;-67
2021/12/30 10:07:41;;;;;;;27.88;4.38;;;11.40;94.40;;;;;;5125671;27;20039;-67
2021/12/30 10:10:28;;;;;;;20.92;3.92;;;11.50;94.20;;;;;;5115228;27;20054;-67
2021/12/30 10:12:53;;;;;;;24.63;4.65;;;11.50;94.20;;;;;;5117023;27;20046;-67
2021/12/30 10:15:24;;;;;;;25.50;4.53;;;11.60;94.00;;;;;;5112269;27;20039;-67
2021/12/30 10:17:58;;;;;;;22.48;4.80;;;11.60;94.10;;;;;;5116647;27;20130;-67
2021/12/30 10:20:27;;;;;;;31.17;4.57;;;11.70;94.00;;;;;;5099305;27;20039;-67
2021/12/30 10:22:55;;;;;;;36.63;6.47;;;11.80;93.80;;;;;;5114336;27;20051;-67
2021/12/30 10:25:31;;;;;;;30.60;5.60;;;11.70;93.70;;;;;;5126260;27;20502;-67
2021/12/30 10:28:45;;;;;;;37.33;6.70;;;11.80;93.90;;;;;;5130633;27;20047;-67
2021/12/30 10:31:13;;;;;;;24.92;6.05;;;11.80;93.70;;;;;;5103267;27;20139;-67
2021/12/30 10:33:54;;;;;;;38.03;7.28;;;11.80;93.70;;;;;;5130662;27;20077;-67
2021/12/30 10:36:27;;;;;;;41.65;6.22;;;11.90;93.60;;;;;;5130518;27;20453;-66
2021/12/30 10:39:12;;;;;;;45.17;8.18;;;11.80;93.70;;;;;;5131295;27;20062;-67
2021/12/30 10:41:38;;;;;;;29.05;6.45;;;11.80;93.70;;;;;;5131198;27;20047;-67
2021/12/30 10:44:05;;;;;;;36.28;8.32;;;11.80;93.70;;;;;;5131580;27;20452;-67
2021/12/30 10:46:30;;;;;;;45.28;8.57;;;11.80;93.80;;;;;;5131771;27;20075;-67
2021/12/30 10:49:04;;;;;;;42.10;9.07;;;11.90;93.60;;;;;;5129971;27;20467;-67
2021/12/30 10:51:47;;;;;;;39.58;7.13;;;11.80;93.60;;;;;;5131675;27;20680;-67
2021/12/30 10:54:17;;;;;;;44.55;9.07;;;11.70;93.60;;;;;;5125533;27;20046;-68
2021/12/30 10:56:46;;;;;;;45.75;9.73;;;11.70;93.60;;;;;;5130595;27;20067;-67
2021/12/30 10:59:26;;;;;;;39.35;7.13;;;11.70;93.50;;;;;;5129555;27;20031;-67
2021/12/30 11:02:03;;;;;;;38.75;8.85;;;11.80;93.40;;;;;;5105254;27;20522;-68
2021/12/30 11:04:36;;;;;;;50.00;8.80;;;11.80;93.50;;;;;;5128941;27;20574;-67
2021/12/30 11:07:02;;;;;;;51.22;10.07;;;11.80;93.40;;;;;;5108550;27;20429;-67
2021/12/30 11:09:28;;;;;;;56.35;10.15;;;11.80;93.40;;;;;;5131019;27;20711;-67
2021/12/30 11:11:58;;;;;;;42.88;8.57;;;11.90;93.20;;;;;;5130745;27;20043;-68
2021/12/30 11:14:27;;;;;;;46.55;8.98;;;11.90;93.30;;;;;;5130288;27;20145;-67
2021/12/30 11:16:59;;;;;;;44.78;9.38;;;11.90;93.30;;;;;;5111406;27;20054;-68
2021/12/30 11:19:27;;;;;;;50.90;8.68;;;11.90;93.20;;;;;;5097876;27;20400;-68
2021/12/30 11:21:53;;;;;;;39.38;7.45;;;11.90;93.10;;;;;;5129099;27;20039;-68
2021/12/30 11:24:20;;;;;;;42.28;8.48;;;11.90;93.10;;;;;;5130836;27;20070;-67
2021/12/30 11:26:46;;;;;;;41.22;7.57;;;11.90;93.10;;;;;;5121094;27;20050;-67
2021/12/30 11:29:12;;;;;;;54.80;8.18;;;11.90;93.00;;;;;;5114758;27;20118;-67
2021/12/30 11:31:37;;;;;;;41.25;8.23;;;11.90;93.00;;;;;;5112670;27;20126;-67
2021/12/30 11:34:04;;;;;;;38.95;6.22;;;11.90;93.00;;;;;;5127830;27;20039;-67
2021/12/30 11:36:33;;;;;;;37.10;8.27;;;12.00;92.90;;;;;;5112676;27;20043;-67
2021/12/30 11:39:03;;;;;;;37.17;7.28;;;12.00;93.00;;;;;;5128211;27;20031;-67
2021/12/30 11:41:30;;;;;;;35.72;7.25;;;12.00;93.00;;;;;;5130881;27;20035;-67
2021/12/30 11:43:56;;;;;;;44.28;7.50;;;12.00;92.70;;;;;;5130116;27;20042;-67
2021/12/30 11:46:44;;;;;;;39.40;8.60;;;12.00;92.70;;;;;;5129888;27;20406;-67
2021/12/30 11:49:15;;;;;;;49.45;9.43;;;12.00;92.80;;;;;;5129928;27;20499;-67
2021/12/30 11:51:52;;;;;;;43.50;7.15;;;12.10;92.80;;;;;;5130431;27;20049;-67
2021/12/30 11:54:37;;;;;;;33.42;6.88;;;12.00;92.80;;;;;;5130403;27;20142;-66
2021/12/30 11:57:23;;;;;;;40.95;9.57;;;12.00;92.70;;;;;;5098877;27;20566;-67
2021/12/30 11:59:49;;;;;;;33.88;6.65;;;12.00;92.70;;;;;;5129061;27;20122;-67
2021/12/30 12:02:34;;;;;;;39.25;7.35;;;12.00;92.90;;;;;;5127940;27;20464;-67
2021/12/30 12:05:42;;;;;;;49.25;10.30;;;12.00;92.80;;;;;;5128947;27;20572;-67
2021/12/30 12:08:11;;;;;;;46.75;7.90;;;12.10;92.70;;;;;;5024152;28;20535;-67
2021/12/30 12:10:38;;;;;;;31.00;6.80;;;12.10;92.80;;;;;;5044836;28;20037;-67
2021/12/30 12:13:33;;;;;;;36.55;7.57;;;12.10;92.80;;;;;;5088724;27;20084;-67
2021/12/30 12:15:59;;;;;;;35.50;8.55;;;12.10;92.60;;;;;;5128705;27;20050;-67
2021/12/30 12:18:26;;;;;;;34.60;7.13;;;12.10;92.60;;;;;;5118668;27;20377;-70
2021/12/30 12:20:55;;;;;;;43.63;9.23;;;12.00;92.70;;;;;;5128528;27;20039;-67
2021/12/30 12:23:45;;;;;;;34.00;6.38;;;12.10;92.60;;;;;;5125941;27;20210;-67
2021/12/30 12:26:16;;;;;;;26.67;5.85;;;12.20;92.40;;;;;;5130040;27;20054;-67
2021/12/30 12:28:45;;;;;;;32.88;6.70;;;12.10;92.30;;;;;;5087603;28;20043;-67
2021/12/30 12:31:12;;;;;;;44.33;9.20;;;12.10;92.40;;;;;;5125744;27;20043;-67
2021/12/30 12:33:40;;;;;;;32.80;6.50;;;12.10;92.40;;;;;;5129900;27;20051;-66
2021/12/30 12:36:18;;;;;;;32.63;6.30;;;12.10;92.40;;;;;;5107143;27;20070;-67
2021/12/30 12:38:46;;;;;;;32.63;6.65;;;12.10;92.40;;;;;;5114244;27;20035;-67
2021/12/30 12:41:31;;;;;;;49.38;8.02;;;12.10;92.30;;;;;;5129610;27;20096;-66
2021/12/30 12:44:05;;;;;;;34.40;6.72;;;12.10;92.40;;;;;;5111548;27;20511;-67
2021/12/30 12:46:51;;;;;;;33.80;6.75;;;12.10;92.40;;;;;;5128790;27;20047;-66